Time;durP1;ratioP1;P1;durP2;ratioP2;P2;SDS_P1;SDS_P2;PMS_P1;PMS_P2;Temp;Humidity;BMP_temperature;BMP_pressure;BME280_temperature;BME280_humidity;BME280_pressure;Samples;Min_cycle;Max_cycle;Signal;HPM_P1;HPM_P2
2020/12/11 00:01:22;;;;;;;;;;;;;;;-0.07;80.51;97347.31;1615607;88;24596;-85
2020/12/11 00:04:09;;;;;;;;;;;;;;;-0.02;80.49;97344.92;1628831;86;20650;-85
2020/12/11 00:06:56;;;;;;;;;;;;;;;0.02;80.48;97343.48;1609280;88;38946;-85
2020/12/11 00:09:44;;;;;;;;;;;;;;;0.00;80.48;97350.00;1613607;88;22192;-85
2020/12/11 00:12:31;;;;;;;;;;;;;;;-0.09;80.47;97351.68;1608295;88;26143;-85
2020/12/11 00:15:19;;;;;;;;;;;;;;;-0.16;80.46;97343.84;1612655;87;24184;-85
2020/12/11 00:18:06;;;;;;;;;;;;;;;-0.12;80.46;97346.23;1610616;88;20436;-85
2020/12/11 00:20:58;;;;;;;;;;;;;;;0.11;80.42;97347.75;1635632;87;24960;-84
2020/12/11 00:23:45;;;;;;;;;;;;;;;0.22;80.41;97345.52;1592421;88;23150;-84
2020/12/11 00:26:31;;;;;;;;;;;;;;;0.22;80.39;97345.52;1633650;87;26210;-82
2020/12/11 00:29:19;;;;;;;;;;;;;;;0.27;80.38;97340.99;1641888;86;24198;-84
2020/12/11 00:32:05;;;;;;;;;;;;;;;0.25;80.39;97344.55;1610614;88;20345;-84
2020/12/11 00:34:52;;;;;;;;;;;;;;;0.30;80.36;97339.58;1609376;88;25053;-84
2020/12/11 00:37:39;;;;;;;;;;;;;;;0.32;80.35;97342.93;1593390;88;22117;-84
2020/12/11 00:40:26;;;;;;;;;;;;;;;0.29;80.34;97349.48;1599158;89;26138;-84
2020/12/11 00:43:14;;;;;;;;;;;;;;;0.35;80.34;97346.63;1630910;87;24663;-84
2020/12/11 00:46:01;;;;;;;;;;;;;;;0.39;80.35;97348.59;1633952;87;20568;-85
2020/12/11 00:48:48;;;;;;;;;;;;;;;0.48;80.33;97346.06;1657422;86;24929;-85
2020/12/11 00:51:35;;;;;;;;;;;;;;;0.44;80.35;97343.27;1633356;86;22063;-85
2020/12/11 00:54:25;;;;;;;;;;;;;;;0.48;80.32;97348.19;1656313;86;26162;-82
2020/12/11 00:57:12;;;;;;;;;;;;;;;0.33;80.32;97347.59;1633330;87;24334;-84
2020/12/11 01:00:02;;;;;;;;;;;;;;;0.05;80.32;97354.48;1657404;86;20531;-84
2020/12/11 01:02:48;;;;;;;;;;;;;;;-0.25;80.29;97354.09;1632986;87;25918;-85
2020/12/11 01:05:37;;;;;;;;;;;;;;;-0.30;80.24;97359.06;1634320;87;23133;-85
2020/12/11 01:08:24;;;;;;;;;;;;;;;-0.21;80.17;97356.91;1634278;87;26352;-84
2020/12/11 01:11:15;;;;;;;;;;;;;;;-0.07;80.12;97353.30;1633155;86;25671;-84
2020/12/11 01:14:01;;;;;;;;;;;;;;;0.07;80.08;97354.39;1633944;87;20293;-84
2020/12/11 01:16:48;;;;;;;;;;;;;;;0.10;80.07;97352.53;1632731;87;24922;-84
2020/12/11 01:19:35;;;;;;;;;;;;;;;0.04;80.10;97358.41;1598871;89;22156;-84
2020/12/11 01:22:23;;;;;;;;;;;;;;;-0.10;80.11;97357.72;1558929;91;26155;-84
2020/12/11 01:25:10;;;;;;;;;;;;;;;-0.24;80.11;97361.36;1634899;87;24794;-84
2020/12/11 01:28:01;;;;;;;;;;;;;;;-0.33;80.07;97364.34;1657239;86;20331;-84
2020/12/11 01:30:48;;;;;;;;;;;;;;;-0.42;80.04;97357.85;1632678;87;24929;-84
2020/12/11 01:33:35;;;;;;;;;;;;;;;-0.49;80.00;97355.16;1598300;87;22144;-84
2020/12/11 01:36:22;;;;;;;;;;;;;;;-0.51;79.96;97362.95;1633525;87;26122;-84
2020/12/11 01:39:08;;;;;;;;;;;;;;;-0.64;79.92;97356.66;1634484;87;24691;-84
2020/12/11 01:41:55;;;;;;;;;;;;;;;-0.75;79.90;97354.99;1611768;87;20283;-84
2020/12/11 01:44:41;;;;;;;;;;;;;;;-0.82;79.88;97348.91;1633891;87;24445;-84
2020/12/11 01:47:28;;;;;;;;;;;;;;;-0.82;79.83;97352.31;1632697;86;22161;-84
2020/12/11 01:50:19;;;;;;;;;;;;;;;-0.82;79.79;97359.19;1631754;87;26216;-84
2020/12/11 01:53:05;;;;;;;;;;;;;;;-0.77;79.77;97359.38;1633713;87;24612;-84
2020/12/11 01:55:55;;;;;;;;;;;;;;;-0.55;79.72;97356.28;1632545;87;20483;-84
2020/12/11 01:58:42;;;;;;;;;;;;;;;-0.35;79.69;97356.70;1634383;87;25660;-84
2020/12/11 02:01:29;;;;;;;;;;;;;;;-0.32;79.72;97359.12;1632419;87;22220;-84
2020/12/11 02:04:15;;;;;;;;;;;;;;;-0.34;79.74;97356.25;1655974;84;26846;-83
2020/12/11 02:07:02;;;;;;;;;;;;;;;-0.21;79.74;97356.08;1635173;87;24622;-83
2020/12/11 02:09:48;;;;;;;;;;;;;;;-0.19;79.73;97350.42;1634667;87;20289;-83
2020/12/11 02:12:35;;;;;;;;;;;;;;;-0.09;79.70;97350.39;1633146;87;25019;-83
2020/12/11 02:15:21;;;;;;;;;;;;;;;-0.02;79.69;97353.92;1633752;87;22232;-83
2020/12/11 02:17:55;;;;;;;;;;;;;;;-0.14;79.68;97357.48;1634946;87;26979;-84
2020/12/11 02:20:42;;;;;;;;;;;;;;;-0.20;79.67;97353.44;1634866;87;24615;-83
2020/12/11 02:23:28;;;;;;;;;;;;;;;-0.20;79.67;97353.44;1632635;86;20461;-83
2020/12/11 02:26:15;;;;;;;;;;;;;;;-0.29;79.66;97354.31;1631774;86;24944;-83
2020/12/11 02:29:02;;;;;;;;;;;;;;;-0.16;79.61;97343.84;1633941;87;22392;-83
2020/12/11 02:31:48;;;;;;;;;;;;;;;-0.05;79.59;97340.34;1635684;87;27229;-84
2020/12/11 02:34:35;;;;;;;;;;;;;;;-0.17;79.61;97339.63;1634702;87;24574;-84
2020/12/11 02:37:21;;;;;;;;;;;;;;;-0.33;79.60;97336.08;1632930;87;20201;-84
2020/12/11 02:40:07;;;;;;;;;;;;;;;-0.47;79.58;97340.07;1609433;88;25825;-84
2020/12/11 02:42:54;;;;;;;;;;;;;;;-0.48;79.55;97336.27;1609747;88;22133;-85
2020/12/11 02:45:41;;;;;;;;;;;;;;;-0.49;79.52;97328.17;1614820;88;25490;-85
2020/12/11 02:48:27;;;;;;;;;;;;;;;-0.34;79.49;97326.69;1633627;87;24736;-85
2020/12/11 02:51:14;;;;;;;;;;;;;;;-0.23;79.48;97324.48;1606874;87;20298;-84
2020/12/11 02:54:05;;;;;;;;;;;;;;;-0.17;79.47;97322.92;1632885;86;25038;-84
2020/12/11 02:56:51;;;;;;;;;;;;;;;-0.15;79.46;97316.79;1609237;88;22970;-84
2020/12/11 02:59:37;;;;;;;;;;;;;;;-0.13;79.45;97325.28;1633256;87;26157;-83
2020/12/11 03:02:24;;;;;;;;;;;;;;;-0.11;79.44;97317.51;1613573;88;24790;-83
2020/12/11 03:05:14;;;;;;;;;;;;;;;-0.22;79.44;97315.39;1611261;88;20204;-83
2020/12/11 03:08:00;;;;;;;;;;;;;;;-0.23;79.45;97315.48;1607745;88;24910;-84
2020/12/11 03:10:47;;;;;;;;;;;;;;;-0.27;79.44;97316.53;1632392;87;22162;-84
2020/12/11 03:13:34;;;;;;;;;;;;;;;-0.47;79.43;97314.38;1610096;87;26317;-83
2020/12/11 03:16:20;;;;;;;;;;;;;;;-0.53;79.40;97323.63;1632484;87;24736;-84
2020/12/11 03:19:10;;;;;;;;;;;;;;;-0.39;79.38;97315.78;1609078;88;20310;-84
2020/12/11 03:21:56;;;;;;;;;;;;;;;-0.32;79.36;97327.44;1631893;87;24969;-84
2020/12/11 03:24:46;;;;;;;;;;;;;;;-0.32;79.34;97327.44;1608303;88;22247;-84
2020/12/11 03:27:32;;;;;;;;;;;;;;;-0.55;79.37;97325.45;1632875;87;26191;-83
2020/12/11 03:30:21;;;;;;;;;;;;;;;-0.67;79.35;97318.27;1585357;88;25612;-83
2020/12/11 03:33:08;;;;;;;;;;;;;;;-0.75;79.36;97321.60;1632740;86;20511;-84
2020/12/11 03:35:55;;;;;;;;;;;;;;;-0.59;79.31;97328.19;1605731;88;24874;-84
2020/12/11 03:38:41;;;;;;;;;;;;;;;-0.64;79.32;97319.85;1616073;86;23355;-84
2020/12/11 03:41:28;;;;;;;;;;;;;;;-0.57;79.31;97323.39;1623032;87;26160;-84
2020/12/11 03:44:14;;;;;;;;;;;;;;;-0.56;79.31;97328.92;1624953;87;24407;-84
2020/12/11 03:47:01;;;;;;;;;;;;;;;-0.53;79.32;97322.80;1634282;87;20269;-84
2020/12/11 03:49:47;;;;;;;;;;;;;;;-0.66;79.32;97326.37;1572585;87;26164;-84
2020/12/11 03:52:33;;;;;;;;;;;;;;;-0.71;79.34;97328.27;1628377;87;22373;-84
2020/12/11 03:55:19;;;;;;;;;;;;;;;-0.65;79.33;97327.17;1642504;87;26402;-84
2020/12/11 03:58:07;;;;;;;;;;;;;;;-0.59;79.33;97329.48;1614654;87;24624;-84
2020/12/11 04:00:54;;;;;;;;;;;;;;;-0.56;79.36;97330.20;1612804;87;20537;-84
2020/12/11 04:03:40;;;;;;;;;;;;;;;-0.49;79.38;97327.73;1609353;88;25103;-85
2020/12/11 04:06:26;;;;;;;;;;;;;;;-0.34;79.38;97324.13;1636612;87;22141;-85
2020/12/11 04:09:12;;;;;;;;;;;;;;;-0.30;79.41;97324.36;1626972;87;26416;-85
2020/12/11 04:11:59;;;;;;;;;;;;;;;-0.17;79.43;97335.33;1611214;87;24619;-85
2020/12/11 04:14:47;;;;;;;;;;;;;;;-0.03;79.45;97338.10;1633943;87;20289;-84
2020/12/11 04:17:34;;;;;;;;;;;;;;;0.08;79.48;97336.78;1610541;87;24890;-84
2020/12/11 04:20:24;;;;;;;;;;;;;;;0.05;79.52;97336.48;1609281;87;22990;-83
2020/12/11 04:23:10;;;;;;;;;;;;;;;0.12;79.54;97338.30;1640561;87;25498;-83
2020/12/11 04:25:57;;;;;;;;;;;;;;;-0.02;79.55;97338.48;1612036;87;24809;-83
2020/12/11 04:28:44;;;;;;;;;;;;;;;-0.04;79.56;97336.43;1639936;87;20444;-84
2020/12/11 04:31:31;;;;;;;;;;;;;;;0.11;79.54;97340.03;1594261;87;24115;-84
2020/12/11 04:34:17;;;;;;;;;;;;;;;-0.05;79.57;97339.06;1633468;87;22106;-83
2020/12/11 04:37:05;;;;;;;;;;;;;;;-0.01;79.55;97342.73;1613522;87;26167;-83
2020/12/11 04:39:51;;;;;;;;;;;;;;;0.10;79.55;97342.25;1574352;88;24631;-84
2020/12/11 04:42:37;;;;;;;;;;;;;;;-0.03;79.57;97335.53;1572437;89;20616;-84
2020/12/11 04:45:24;;;;;;;;;;;;;;;-0.11;79.59;97341.94;1634161;87;25203;-84
2020/12/11 04:48:13;;;;;;;;;;;;;;;-0.01;79.54;97340.61;1633409;87;22132;-84
2020/12/11 04:50:59;;;;;;;;;;;;;;;0.14;79.55;97338.63;1633223;87;26206;-84
2020/12/11 04:53:46;;;;;;;;;;;;;;;0.27;79.52;97335.05;1631922;87;24706;-84
2020/12/11 04:56:33;;;;;;;;;;;;;;;0.36;79.52;97335.89;1634810;87;20664;-84
2020/12/11 04:59:20;;;;;;;;;;;;;;;0.24;79.57;97337.73;1606688;87;24720;-84
2020/12/11 05:02:07;;;;;;;;;;;;;;;0.23;79.58;97336.91;1634158;87;23050;-84
2020/12/11 05:04:53;;;;;;;;;;;;;;;0.31;79.56;97337.84;1634359;87;26282;-84
2020/12/11 05:07:40;;;;;;;;;;;;;;;0.24;79.59;97346.30;1658418;86;25123;-84
2020/12/11 05:10:26;;;;;;;;;;;;;;;0.14;79.60;97348.07;1633608;87;20283;-84
2020/12/11 05:13:13;;;;;;;;;;;;;;;0.03;79.60;97352.42;1633482;87;25076;-84
2020/12/11 05:16:03;;;;;;;;;;;;;;;-0.06;79.58;97355.42;1615100;87;22798;-83
2020/12/11 05:18:50;;;;;;;;;;;;;;;0.04;79.56;97354.55;1633972;87;26214;-85
2020/12/11 05:21:38;;;;;;;;;;;;;;;-0.06;79.55;97355.42;1633854;87;24676;-84
2020/12/11 05:24:25;;;;;;;;;;;;;;;-0.08;79.56;97353.36;1598403;88;20477;-84
2020/12/11 05:27:12;;;;;;;;;;;;;;;-0.05;79.56;97357.90;1574039;90;25103;-85
2020/12/11 05:29:59;;;;;;;;;;;;;;;-0.01;79.55;97354.31;1574492;90;22401;-85
2020/12/11 05:32:45;;;;;;;;;;;;;;;0.06;79.55;97359.15;1633149;86;26140;-84
2020/12/11 05:35:32;;;;;;;;;;;;;;;0.22;79.56;97364.81;1632297;87;24629;-84
2020/12/11 05:38:19;;;;;;;;;;;;;;;0.38;79.57;97366.25;1628094;86;20298;-84
2020/12/11 05:41:05;;;;;;;;;;;;;;;0.54;79.58;97371.52;1574671;90;24913;-84
2020/12/11 05:43:52;;;;;;;;;;;;;;;0.62;79.61;97371.52;1572913;90;22125;-84
2020/12/11 05:46:38;;;;;;;;;;;;;;;0.67;79.62;97383.72;1632488;87;26116;-84
2020/12/11 05:49:25;;;;;;;;;;;;;;;0.69;79.65;97379.80;1633918;86;24477;-84
2020/12/11 05:52:11;;;;;;;;;;;;;;;0.78;79.67;97380.64;1633318;86;20633;-84
2020/12/11 05:54:59;;;;;;;;;;;;;;;0.86;79.65;97382.41;1597963;89;25325;-84
2020/12/11 05:57:45;;;;;;;;;;;;;;;0.88;79.67;97379.29;1573500;89;21545;-85
2020/12/11 06:00:32;;;;;;;;;;;;;;;0.86;79.68;97370.83;1634524;86;26165;-84
2020/12/11 06:03:19;;;;;;;;;;;;;;;0.82;79.67;97369.28;1655596;86;24376;-84
2020/12/11 06:06:06;;;;;;;;;;;;;;;0.79;79.69;97365.13;1632958;87;20263;-85
2020/12/11 06:08:53;;;;;;;;;;;;;;;0.73;79.70;97356.85;1633157;87;24729;-85
2020/12/11 06:11:40;;;;;;;;;;;;;;;0.67;79.70;97355.41;1629145;87;22941;-85
2020/12/11 06:14:27;;;;;;;;;;;;;;;0.72;79.70;97355.18;1634393;86;26149;-84
2020/12/11 06:17:17;;;;;;;;;;;;;;;0.76;79.70;97356.72;1633939;87;24635;-84
2020/12/11 06:20:07;;;;;;;;;;;;;;;0.82;79.66;97364.13;1632689;87;20485;-84
2020/12/11 06:22:53;;;;;;;;;;;;;;;0.95;79.67;97358.78;1630650;87;24779;-84
2020/12/11 06:25:39;;;;;;;;;;;;;;;0.98;79.65;97350.08;1632385;87;22153;-83
2020/12/11 06:28:26;;;;;;;;;;;;;;;0.77;79.67;97353.22;1613014;87;26857;-84
2020/12/11 06:31:13;;;;;;;;;;;;;;;0.78;79.67;97357.02;1654384;86;24254;-84
2020/12/11 06:34:00;;;;;;;;;;;;;;;0.79;79.66;97346.27;1634131;87;20288;-85
2020/12/11 06:36:47;;;;;;;;;;;;;;;0.50;79.67;97344.23;1634545;87;25148;-84
2020/12/11 06:39:34;;;;;;;;;;;;;;;0.36;79.65;97344.89;1655064;86;22187;-84
2020/12/11 06:42:08;;;;;;;;;;;;;;;0.22;79.64;97351.95;1633371;87;27065;-84
2020/12/11 06:44:55;;;;;;;;;;;;;;;0.30;79.58;97348.59;1592274;88;24583;-84
2020/12/11 06:47:42;;;;;;;;;;;;;;;0.41;79.56;97350.20;1633273;87;20168;-84
2020/12/11 06:50:31;;;;;;;;;;;;;;;0.46;79.55;97355.59;1606125;87;24674;-83
2020/12/11 06:53:18;;;;;;;;;;;;;;;0.36;79.57;97351.33;1636415;86;21947;-83
2020/12/11 06:56:05;;;;;;;;;;;;;;;0.40;79.58;97352.39;1608411;87;26130;-83
2020/12/11 06:58:52;;;;;;;;;;;;;;;0.58;79.56;97356.30;1629671;87;26480;-83
2020/12/11 07:01:38;;;;;;;;;;;;;;;0.67;79.56;97359.72;1621960;87;20656;-83
2020/12/11 07:04:25;;;;;;;;;;;;;;;0.70;79.60;97362.16;1615967;87;25184;-82
2020/12/11 07:07:14;;;;;;;;;;;;;;;0.73;79.62;97365.42;1587119;87;23334;-83
2020/12/11 07:10:00;;;;;;;;;;;;;;;0.83;79.61;97363.23;1611869;87;26386;-83
2020/12/11 07:12:47;;;;;;;;;;;;;;;0.91;79.63;97359.01;1635635;87;24620;-83
2020/12/11 07:15:34;;;;;;;;;;;;;;;0.87;79.67;97365.22;1632748;87;20535;-83
2020/12/11 07:18:26;;;;;;;;;;;;;;;0.90;79.69;97358.62;1614714;87;25133;-83
2020/12/11 07:21:12;;;;;;;;;;;;;;;0.98;79.71;97359.94;1644276;86;21684;-83
2020/12/11 07:24:00;;;;;;;;;;;;;;;1.02;79.72;97352.42;1633498;87;26385;-83
2020/12/11 07:26:46;;;;;;;;;;;;;;;0.94;79.76;97354.98;1589696;87;24661;-83
2020/12/11 07:29:21;;;;;;;;;;;;;;;0.89;79.77;97359.52;1613223;87;20360;-83
2020/12/11 07:32:09;;;;;;;;;;;;;;;0.91;79.80;97355.14;1608904;87;24917;-83
2020/12/11 07:34:56;;;;;;;;;;;;;;;0.94;79.79;97362.70;1616271;87;22252;-83
2020/12/11 07:37:42;;;;;;;;;;;;;;;1.07;79.81;97362.05;1633217;87;27025;-83
2020/12/11 07:40:30;;;;;;;;;;;;;;;1.18;79.82;97359.78;1614137;87;24715;-83
2020/12/11 07:43:17;;;;;;;;;;;;;;;1.22;79.83;97365.60;1611504;87;20270;-83
2020/12/11 07:46:05;;;;;;;;;;;;;;;1.37;79.88;97361.41;1641013;87;24950;-83
2020/12/11 07:48:53;;;;;;;;;;;;;;;1.30;79.93;97360.08;1646375;86;21959;-83
2020/12/11 07:51:39;;;;;;;;;;;;;;;1.02;79.97;97361.89;1649675;86;26128;-83
2020/12/11 07:54:26;;;;;;;;;;;;;;;0.80;79.99;97366.80;1611242;87;25521;-83
2020/12/11 07:57:12;;;;;;;;;;;;;;;0.61;79.97;97369.85;1641182;86;20290;-83
2020/12/11 07:59:59;;;;;;;;;;;;;;;0.52;79.93;97357.42;1644998;86;25823;-83
2020/12/11 08:02:46;;;;;;;;;;;;;;;0.56;79.88;97358.10;1613591;87;22160;-83
2020/12/11 08:05:32;;;;;;;;;;;;;;;0.68;79.84;97351.09;1637075;86;26157;-83
2020/12/11 08:08:20;;;;;;;;;;;;;;;0.72;79.83;97353.89;1590110;88;24177;-83
2020/12/11 08:11:06;;;;;;;;;;;;;;;0.74;79.86;97344.37;1617348;87;20432;-83
2020/12/11 08:13:53;;;;;;;;;;;;;;;0.82;79.90;97339.66;1616311;87;24929;-83
2020/12/11 08:16:42;;;;;;;;;;;;;;;0.90;79.92;97344.00;1622192;87;22214;-83
2020/12/11 08:19:29;;;;;;;;;;;;;;;1.04;79.94;97344.15;1613528;87;26914;-83
2020/12/11 08:22:15;;;;;;;;;;;;;;;1.13;79.99;97341.59;1620660;87;24589;-83
2020/12/11 08:25:03;;;;;;;;;;;;;;;1.15;80.05;97347.03;1608262;87;20463;-83
2020/12/11 08:27:49;;;;;;;;;;;;;;;1.24;80.12;97340.60;1630071;87;25158;-83
2020/12/11 08:30:37;;;;;;;;;;;;;;;1.35;80.14;97333.16;1619361;87;21441;-83
2020/12/11 08:33:24;;;;;;;;;;;;;;;1.48;80.18;97335.93;1616708;87;25734;-83
2020/12/11 08:36:11;;;;;;;;;;;;;;;1.75;80.21;97332.38;1614792;87;25620;-83
2020/12/11 08:38:58;;;;;;;;;;;;;;;1.98;80.26;97332.84;1639404;86;20471;-83
2020/12/11 08:41:48;;;;;;;;;;;;;;;2.04;80.33;97335.10;1605681;87;25760;-83
2020/12/11 08:44:50;;;;;;;;;;;;;;;2.02;80.40;97326.59;1619258;88;22028;-83
2020/12/11 08:50:43;;;;;;;;;;;;;;;2.15;80.47;97322.08;1634468;87;24594;-84
2020/12/11 08:53:34;;;;;;;;;;;;;;;2.23;80.50;97323.80;1600467;88;20333;-83
2020/12/11 08:56:19;;;;;;;;;;;;;;;2.12;80.55;97320.97;1619759;87;24903;-83
2020/12/11 08:59:06;;;;;;;;;;;;;;;2.12;80.56;97328.25;1616857;87;22114;-83
2020/12/11 09:01:53;;;;;;;;;;;;;;;2.12;80.58;97328.70;1625300;87;27273;-83
2020/12/11 09:04:41;;;;;;;;;;;;;;;2.04;80.59;97324.78;1607230;87;24851;-83
2020/12/11 09:07:28;;;;;;;;;;;;;;;1.98;80.60;97330.72;1613181;88;20313;-83
2020/12/11 09:10:15;;;;;;;;;;;;;;;1.92;80.58;97325.88;1651940;86;24708;-83
2020/12/11 09:13:04;;;;;;;;;;;;;;;1.84;80.59;97323.73;1610652;88;22227;-85
2020/12/11 09:15:51;;;;;;;;;;;;;;;1.80;80.57;97320.91;1626501;87;26295;-84
2020/12/11 09:18:38;;;;;;;;;;;;;;;2.02;80.53;97321.89;1648806;86;25382;-83
2020/12/11 09:21:29;;;;;;;;;;;;;;;2.27;80.51;97320.13;1657122;85;20397;-84
2020/12/11 09:24:16;;;;;;;;;;;;;;;2.48;80.50;97321.08;1613110;88;25749;-84
2020/12/11 09:27:07;;;;;;;;;;;;;;;2.61;80.52;97313.48;1615028;88;21979;-85
2020/12/11 09:30:02;;;;;;;;;;;;;;;2.63;80.57;97310.34;1635468;87;26108;-84
2020/12/11 09:32:37;;;;;;;;;;;;;;;2.56;80.63;97305.17;1624287;87;24785;-84
2020/12/11 09:35:22;;;;;;;;;;;;;;;2.50;80.65;97300.34;1596379;87;20276;-84
2020/12/11 09:38:08;;;;;;;;;;;;;;;2.45;80.67;97308.80;1616877;87;25016;-84
2020/12/11 09:40:58;;;;;;;;;;;;;;;2.42;80.70;97306.38;1579043;88;22170;-84
2020/12/11 09:47:17;;;;;;;;;;;;;;;2.35;80.68;97298.58;1636089;86;24623;-85
2020/12/11 09:50:02;;;;;;;;;;;;;;;2.52;80.67;97280.41;1634087;86;20445;-83
2020/12/11 09:52:59;;;;;;;;;;;;;;;2.79;80.64;97282.72;1630214;87;25029;-84
2020/12/11 09:55:44;;;;;;;;;;;;;;;2.88;80.67;97284.80;1631742;87;22167;-85
2020/12/11 09:58:39;;;;;;;;;;;;;;;2.84;80.71;97277.28;1634856;87;26220;-85
2020/12/11 10:01:27;;;;;;;;;;;;;;;2.80;80.73;97267.60;1632188;87;25638;-85
2020/12/11 10:04:22;;;;;;;;;;;;;;;2.79;80.73;97264.64;1634093;86;20348;-85
2020/12/11 10:07:09;;;;;;;;;;;;;;;2.73;80.75;97268.86;1633879;87;25223;-86
2020/12/11 10:09:58;;;;;;;;;;;;;;;2.65;80.75;97263.77;1631829;87;22072;-85
2020/12/11 10:12:50;;;;;;;;;;;;;;;2.65;80.73;97262.48;1634355;87;26145;-85
2020/12/11 10:15:39;;;;;;;;;;;;;;;2.66;80.71;97264.98;1634307;87;24635;-84
2020/12/11 10:21:03;;;;;;;;;;;;;;;2.60;80.69;97269.66;1631849;86;25349;-85
2020/12/11 10:23:49;;;;;;;;;;;;;;;2.59;80.69;97257.66;1601456;88;22181;-85
2020/12/11 10:26:39;;;;;;;;;;;;;;;2.58;80.71;97253.41;1573621;90;27096;-85
2020/12/11 10:29:26;;;;;;;;;;;;;;;2.55;80.70;97249.27;1571718;89;25517;-85
2020/12/11 10:32:13;;;;;;;;;;;;;;;2.55;80.70;97248.44;1599472;89;20355;-85
2020/12/11 10:35:00;;;;;;;;;;;;;;;2.58;80.69;97246.95;1632560;86;24918;-85
2020/12/11 10:37:34;;;;;;;;;;;;;;;2.60;80.70;97235.63;1634770;87;22267;-85
2020/12/11 10:40:21;;;;;;;;;;;;;;;2.65;80.70;97232.33;1626815;87;26230;-85
2020/12/11 10:43:09;;;;;;;;;;;;;;;2.74;80.72;97234.37;1574077;90;24716;-85
2020/12/11 10:45:58;;;;;;;;;;;;;;;2.80;80.72;97231.89;1573610;90;20255;-85
2020/12/11 10:48:45;;;;;;;;;;;;;;;2.89;80.74;97237.84;1633951;87;25091;-86
2020/12/11 10:51:34;;;;;;;;;;;;;;;3.03;80.77;97237.84;1612122;87;22020;-86
2020/12/11 10:54:22;;;;;;;;;;;;;;;3.12;80.80;97232.58;1630882;87;26202;-86
2020/12/11 10:57:10;;;;;;;;;;;;;;;3.12;80.84;97238.59;1632864;87;24627;-86
2020/12/11 10:59:57;;;;;;;;;;;;;;;3.09;80.88;97231.03;1633479;87;20359;-87
2020/12/11 11:02:50;;;;;;;;;;;;;;;3.06;80.91;97232.48;1631926;86;25009;-87
2020/12/11 11:05:38;;;;;;;;;;;;;;;2.99;80.92;97222.62;1631391;87;22218;-87
2020/12/11 11:08:34;;;;;;;;;;;;;;;2.95;80.92;97218.07;1634156;87;26083;-87
2020/12/11 11:11:13;;;;;;;;;;;;;;;2.91;80.90;97207.09;1631524;87;24758;-87
2020/12/11 11:17:45;;;;;;;;;;;;;;;3.01;80.91;97209.96;1632285;87;25119;-87
2020/12/11 11:23:37;;;;;;;;;;;;;;;3.26;80.91;97201.13;1630930;87;26142;-88
2020/12/11 11:26:27;;;;;;;;;;;;;;;3.36;80.94;97194.94;1634238;86;25798;-88
2020/12/11 11:29:12;;;;;;;;;;;;;;;3.54;80.97;97186.06;1600036;89;21653;-88
2020/12/11 11:31:46;;;;;;;;;;;;;;;3.63;80.98;97180.31;1575104;90;25017;-87
2020/12/11 11:34:34;;;;;;;;;;;;;;;3.51;81.07;97178.47;1613928;88;21732;-88
2020/12/11 11:37:21;;;;;;;;;;;;;;;3.46;81.08;97174.05;1634902;87;26159;-88
2020/12/11 11:40:08;;;;;;;;;;;;;;;3.51;81.08;97172.47;1601271;87;24591;-88
2020/12/11 11:42:55;;;;;;;;;;;;;;;3.40;81.10;97166.66;1616191;87;20342;-87
2020/12/11 11:45:42;;;;;;;;;;;;;;;3.37;81.06;97160.41;1636299;86;24894;-88
2020/12/11 11:48:30;;;;;;;;;;;;;;;3.52;81.05;97159.91;1646787;86;22889;-88
2020/12/11 11:54:13;;;;;;;;;;;;;;;3.58;81.07;97155.66;1606423;88;24435;-88
2020/12/11 11:57:04;;;;;;;;;;;;;;;3.63;81.07;97157.48;1639105;87;20340;-87
2020/12/11 11:59:52;;;;;;;;;;;;;;;3.66;81.10;97154.23;1625917;87;24984;-87
2020/12/11 12:02:40;;;;;;;;;;;;;;;3.68;81.10;97151.09;1625071;87;22211;-87
2020/12/11 12:05:26;;;;;;;;;;;;;;;3.64;81.10;97146.22;1641379;86;26126;-88
2020/12/11 12:08:13;;;;;;;;;;;;;;;3.62;81.09;97145.47;1611264;88;25502;-86
2020/12/11 12:10:48;;;;;;;;;;;;;;;3.70;81.07;97150.55;1616820;87;20387;-86
2020/12/11 12:13:35;;;;;;;;;;;;;;;3.77;81.06;97140.16;1609397;88;24899;-87
2020/12/11 12:16:21;;;;;;;;;;;;;;;3.84;81.05;97143.66;1629623;87;22074;-86
2020/12/11 12:19:12;;;;;;;;;;;;;;;3.84;81.10;97137.19;1639902;87;26145;-87
2020/12/11 12:28:24;;;;;;;;;;;;;;;3.83;81.08;97130.34;1639619;86;25081;-87
2020/12/11 12:31:12;;;;;;;;;;;;;;;3.77;81.07;97120.76;1611076;87;22198;-87
2020/12/11 12:37:33;;;;;;;;;;;;;;;3.70;81.00;97112.20;1623886;87;24518;-87
2020/12/11 12:40:49;;;;;;;;;;;;;;;3.63;80.94;97114.34;1615608;87;20323;-86
2020/12/11 12:43:25;;;;;;;;;;;;;;;3.59;80.90;97106.88;1640754;86;25984;-87
2020/12/11 12:46:11;;;;;;;;;;;;;;;3.53;80.89;97099.05;1605796;87;22158;-87
2020/12/11 12:48:59;;;;;;;;;;;;;;;3.49;80.86;97096.27;1627941;87;26134;-87
2020/12/11 12:51:45;;;;;;;;;;;;;;;3.48;80.84;97096.37;1635727;86;24905;-86
2020/12/11 12:54:32;;;;;;;;;;;;;;;3.47;80.78;97086.50;1629282;86;20280;-87
2020/12/11 12:57:21;;;;;;;;;;;;;;;3.45;80.76;97084.45;1628361;87;25908;-88
2020/12/11 13:00:17;;;;;;;;;;;;;;;3.44;80.72;97080.70;1627535;87;22147;-87
2020/12/11 13:06:06;;;;;;;;;;;;;;;3.49;80.66;97087.70;1628569;87;24702;-87
2020/12/11 13:08:53;;;;;;;;;;;;;;;3.48;80.65;97080.86;1629238;87;20185;-87
2020/12/11 13:11:40;;;;;;;;;;;;;;;3.48;80.64;97076.98;1627485;87;24886;-88
2020/12/11 13:14:28;;;;;;;;;;;;;;;3.53;80.58;97081.40;1595692;89;23112;-87
2020/12/11 13:17:16;;;;;;;;;;;;;;;3.55;80.56;97078.23;1572110;90;26963;-88
2020/12/11 13:20:04;;;;;;;;;;;;;;;3.54;80.55;97071.42;1618995;87;24495;-88
2020/12/11 13:26:20;;;;;;;;;;;;;;;3.53;80.53;97069.30;1566975;89;24935;-87
2020/12/11 13:29:07;;;;;;;;;;;;;;;3.57;80.50;97064.75;1593524;89;22036;-87
2020/12/11 13:31:54;;;;;;;;;;;;;;;3.52;80.52;97065.52;1596665;89;26160;-88
2020/12/11 13:34:35;;;;;;;;;;;;;;;3.58;80.50;97062.54;1596374;89;25466;-87
2020/12/11 13:37:28;;;;;;;;;;;;;;;3.58;80.50;97063.38;1595668;89;20522;-88
2020/12/11 13:40:14;;;;;;;;;;;;;;;3.53;80.51;97060.70;1595713;89;25803;-88
2020/12/11 13:43:01;;;;;;;;;;;;;;;3.45;80.51;97059.89;1595747;89;22389;-88
2020/12/11 13:45:48;;;;;;;;;;;;;;;3.41;80.51;97055.02;1597056;89;26124;-88
2020/12/11 13:51:32;;;;;;;;;;;;;;;3.29;80.46;97042.39;1596150;87;20303;-87
2020/12/11 13:54:20;;;;;;;;;;;;;;;3.29;80.41;97047.56;1627933;86;25251;-87
2020/12/11 13:57:07;;;;;;;;;;;;;;;3.30;80.37;97051.36;1613774;88;22247;-87
2020/12/11 13:59:56;;;;;;;;;;;;;;;3.29;80.37;97042.39;1635780;86;26206;-87
2020/12/11 14:02:43;;;;;;;;;;;;;;;3.22;80.36;97047.58;1649398;86;24764;-90
2020/12/11 14:05:19;;;;;;;;;;;;;;;3.15;80.37;97045.86;1636344;87;20347;-89
2020/12/11 14:07:53;;;;;;;;;;;;;;;3.15;80.32;97042.44;1628496;86;24915;-89
2020/12/11 14:10:40;;;;;;;;;;;;;;;3.19;80.32;97042.61;1608809;87;21920;-88
2020/12/11 14:13:28;;;;;;;;;;;;;;;3.23;80.31;97041.48;1640116;86;26198;-88
2020/12/11 14:16:02;;;;;;;;;;;;;;;3.23;80.29;97038.44;1609013;88;24716;-87
2020/12/11 14:19:02;;;;;;;;;;;;;;;3.25;80.28;97035.77;1677683;85;20291;-88
2020/12/11 14:21:47;;;;;;;;;;;;;;;3.27;80.27;97033.92;1596686;88;24969;-87
2020/12/11 14:24:33;;;;;;;;;;;;;;;3.14;80.28;97032.56;1634866;87;22972;-86
2020/12/11 14:27:19;;;;;;;;;;;;;;;3.02;80.29;97042.83;1642773;86;26152;-87
2020/12/11 14:30:06;;;;;;;;;;;;;;;2.95;80.25;97038.03;1618481;87;24943;-87
2020/12/11 14:32:53;;;;;;;;;;;;;;;2.97;80.25;97037.11;1669347;85;20574;-87
2020/12/11 14:35:42;;;;;;;;;;;;;;;2.95;80.23;97032.86;1645319;86;24975;-87
2020/12/11 14:41:37;;;;;;;;;;;;;;;2.86;80.21;97036.48;1639873;85;27085;-86
2020/12/11 14:44:24;;;;;;;;;;;;;;;2.67;80.22;97035.50;1610461;87;24297;-86
2020/12/11 14:47:11;;;;;;;;;;;;;;;2.58;80.22;97034.75;1635030;87;20318;-86
2020/12/11 14:49:57;;;;;;;;;;;;;;;2.51;80.15;97026.98;1636229;87;25912;-86
2020/12/11 14:52:44;;;;;;;;;;;;;;;2.49;80.10;97027.11;1628277;87;22244;-86
2020/12/11 14:55:32;;;;;;;;;;;;;;;2.47;80.08;97028.94;1610014;88;26147;-87
2020/12/11 14:58:20;;;;;;;;;;;;;;;2.44;80.06;97032.17;1650562;86;24787;-86
2020/12/11 15:01:07;;;;;;;;;;;;;;;2.44;80.05;97030.88;1611977;88;20440;-87
2020/12/11 15:03:56;;;;;;;;;;;;;;;2.45;80.04;97024.34;1642996;86;24883;-87
2020/12/11 15:06:42;;;;;;;;;;;;;;;2.54;80.03;97024.23;1644261;86;21785;-86
2020/12/11 15:09:29;;;;;;;;;;;;;;;2.48;80.07;97024.14;1623387;87;27106;-87
2020/12/11 15:12:16;;;;;;;;;;;;;;;2.40;80.10;97023.76;1611181;87;24636;-85
2020/12/11 15:15:03;;;;;;;;;;;;;;;2.35;80.10;97018.50;1650613;86;20518;-85
2020/12/11 15:17:49;;;;;;;;;;;;;;;2.35;80.10;97016.75;1608830;88;24692;-85
2020/12/11 15:20:37;;;;;;;;;;;;;;;2.42;80.10;97010.77;1634619;86;22901;-85